sensor_id;sensor_type;location;lat;lon;timestamp;P1;durP1;ratioP1;P2;durP2;ratioP2
20758;SDS011;10539;53.686;9.158;2023-05-06T00:00:54;10.53;;;4.17;;
20758;SDS011;10539;53.686;9.158;2023-05-06T00:03:20;10.70;;;4.70;;
20758;SDS011;10539;53.686;9.158;2023-05-06T00:05:46;11.03;;;4.33;;
20758;SDS011;10539;53.686;9.158;2023-05-06T00:08:13;9.03;;;3.40;;
20758;SDS011;10539;53.686;9.158;2023-05-06T00:10:39;9.93;;;3.37;;
20758;SDS011;10539;53.686;9.158;2023-05-06T00:13:05;8.67;;;3.37;;
20758;SDS011;10539;53.686;9.158;2023-05-06T00:15:32;13.53;;;4.67;;
20758;SDS011;10539;53.686;9.158;2023-05-06T00:17:59;9.50;;;3.67;;
20758;SDS011;10539;53.686;9.158;2023-05-06T00:20:25;13.37;;;4.27;;
20758;SDS011;10539;53.686;9.158;2023-05-06T00:22:52;9.73;;;3.50;;
20758;SDS011;10539;53.686;9.158;2023-05-06T00:25:18;10.90;;;3.90;;
20758;SDS011;10539;53.686;9.158;2023-05-06T00:27:44;10.57;;;4.67;;
20758;SDS011;10539;53.686;9.158;2023-05-06T00:30:09;10.27;;;3.63;;
20758;SDS011;10539;53.686;9.158;2023-05-06T00:32:36;13.03;;;3.73;;
20758;SDS011;10539;53.686;9.158;2023-05-06T00:35:02;15.33;;;4.43;;
20758;SDS011;10539;53.686;9.158;2023-05-06T00:37:28;10.70;;;4.53;;
20758;SDS011;10539;53.686;9.158;2023-05-06T00:39:54;12.23;;;4.57;;
20758;SDS011;10539;53.686;9.158;2023-05-06T00:42:20;10.53;;;4.53;;
20758;SDS011;10539;53.686;9.158;2023-05-06T00:44:48;12.63;;;4.13;;
20758;SDS011;10539;53.686;9.158;2023-05-06T00:47:14;13.87;;;4.47;;
20758;SDS011;10539;53.686;9.158;2023-05-06T00:49:41;9.63;;;4.17;;
20758;SDS011;10539;53.686;9.158;2023-05-06T00:52:07;8.17;;;4.50;;
20758;SDS011;10539;53.686;9.158;2023-05-06T00:54:33;12.43;;;4.60;;
20758;SDS011;10539;53.686;9.158;2023-05-06T00:57:00;12.30;;;5.03;;
20758;SDS011;10539;53.686;9.158;2023-05-06T00:59:27;9.60;;;4.47;;
20758;SDS011;10539;53.686;9.158;2023-05-06T01:01:53;10.33;;;4.57;;
20758;SDS011;10539;53.686;9.158;2023-05-06T01:04:19;13.20;;;5.27;;
20758;SDS011;10539;53.686;9.158;2023-05-06T01:06:53;9.83;;;4.90;;
20758;SDS011;10539;53.686;9.158;2023-05-06T01:09:32;14.23;;;5.20;;
20758;SDS011;10539;53.686;9.158;2023-05-06T01:12:33;15.87;;;5.07;;
20758;SDS011;10539;53.686;9.158;2023-05-06T01:17:33;9.53;;;4.67;;
20758;SDS011;10539;53.686;9.158;2023-05-06T01:20:03;14.87;;;5.60;;
20758;SDS011;10539;53.686;9.158;2023-05-06T01:22:33;14.10;;;5.30;;
20758;SDS011;10539;53.686;9.158;2023-05-06T01:25:01;13.50;;;5.67;;
20758;SDS011;10539;53.686;9.158;2023-05-06T01:27:27;11.00;;;5.80;;
20758;SDS011;10539;53.686;9.158;2023-05-06T01:29:53;14.03;;;5.50;;
20758;SDS011;10539;53.686;9.158;2023-05-06T01:32:25;11.63;;;5.27;;
20758;SDS011;10539;53.686;9.158;2023-05-06T01:37:45;10.87;;;5.40;;
20758;SDS011;10539;53.686;9.158;2023-05-06T01:40:25;9.50;;;4.80;;
20758;SDS011;10539;53.686;9.158;2023-05-06T01:42:52;12.47;;;6.00;;
20758;SDS011;10539;53.686;9.158;2023-05-06T01:45:19;10.90;;;4.97;;
20758;SDS011;10539;53.686;9.158;2023-05-06T01:47:47;14.60;;;5.80;;
20758;SDS011;10539;53.686;9.158;2023-05-06T01:50:13;10.50;;;5.00;;
20758;SDS011;10539;53.686;9.158;2023-05-06T01:52:40;12.83;;;5.80;;
20758;SDS011;10539;53.686;9.158;2023-05-06T01:55:06;14.70;;;5.30;;
20758;SDS011;10539;53.686;9.158;2023-05-06T01:57:33;10.50;;;5.50;;
20758;SDS011;10539;53.686;9.158;2023-05-06T01:59:59;12.97;;;5.80;;
20758;SDS011;10539;53.686;9.158;2023-05-06T02:02:25;12.73;;;5.53;;
20758;SDS011;10539;53.686;9.158;2023-05-06T02:04:51;13.27;;;5.70;;
20758;SDS011;10539;53.686;9.158;2023-05-06T02:07:17;15.33;;;5.93;;
20758;SDS011;10539;53.686;9.158;2023-05-06T02:09:43;13.80;;;6.23;;
20758;SDS011;10539;53.686;9.158;2023-05-06T02:12:08;15.07;;;5.87;;
20758;SDS011;10539;53.686;9.158;2023-05-06T02:14:34;11.50;;;5.70;;
20758;SDS011;10539;53.686;9.158;2023-05-06T02:17:03;12.53;;;6.03;;
20758;SDS011;10539;53.686;9.158;2023-05-06T02:19:29;17.93;;;6.20;;
20758;SDS011;10539;53.686;9.158;2023-05-06T02:21:55;11.57;;;5.90;;
20758;SDS011;10539;53.686;9.158;2023-05-06T02:24:21;12.17;;;5.67;;
20758;SDS011;10539;53.686;9.158;2023-05-06T02:26:47;13.50;;;5.93;;
20758;SDS011;10539;53.686;9.158;2023-05-06T02:29:13;14.10;;;5.90;;
20758;SDS011;10539;53.686;9.158;2023-05-06T02:31:39;14.60;;;5.97;;
20758;SDS011;10539;53.686;9.158;2023-05-06T02:34:04;14.83;;;6.03;;
20758;SDS011;10539;53.686;9.158;2023-05-06T02:36:31;13.13;;;5.90;;
20758;SDS011;10539;53.686;9.158;2023-05-06T02:38:57;11.70;;;5.90;;
20758;SDS011;10539;53.686;9.158;2023-05-06T02:41:23;13.57;;;5.43;;
20758;SDS011;10539;53.686;9.158;2023-05-06T02:43:48;13.27;;;5.63;;
20758;SDS011;10539;53.686;9.158;2023-05-06T02:46:14;13.03;;;5.80;;
20758;SDS011;10539;53.686;9.158;2023-05-06T02:48:40;12.40;;;5.27;;
20758;SDS011;10539;53.686;9.158;2023-05-06T02:51:06;18.13;;;6.40;;
20758;SDS011;10539;53.686;9.158;2023-05-06T02:53:32;21.50;;;6.80;;
20758;SDS011;10539;53.686;9.158;2023-05-06T02:55:57;17.03;;;6.37;;
20758;SDS011;10539;53.686;9.158;2023-05-06T02:58:23;15.93;;;7.23;;
20758;SDS011;10539;53.686;9.158;2023-05-06T03:00:50;14.17;;;6.43;;
20758;SDS011;10539;53.686;9.158;2023-05-06T03:03:16;17.33;;;6.73;;
20758;SDS011;10539;53.686;9.158;2023-05-06T03:05:42;18.23;;;6.80;;
20758;SDS011;10539;53.686;9.158;2023-05-06T03:08:08;20.77;;;7.00;;
20758;SDS011;10539;53.686;9.158;2023-05-06T03:10:34;15.73;;;6.23;;
20758;SDS011;10539;53.686;9.158;2023-05-06T03:12:59;15.63;;;6.93;;
20758;SDS011;10539;53.686;9.158;2023-05-06T03:15:25;19.37;;;7.40;;
20758;SDS011;10539;53.686;9.158;2023-05-06T03:17:51;15.57;;;7.33;;
20758;SDS011;10539;53.686;9.158;2023-05-06T03:20:16;19.03;;;6.90;;
20758;SDS011;10539;53.686;9.158;2023-05-06T03:22:42;17.90;;;7.20;;
20758;SDS011;10539;53.686;9.158;2023-05-06T03:25:08;11.80;;;6.13;;
20758;SDS011;10539;53.686;9.158;2023-05-06T03:27:34;17.53;;;6.73;;
20758;SDS011;10539;53.686;9.158;2023-05-06T03:30:00;12.30;;;6.70;;
20758;SDS011;10539;53.686;9.158;2023-05-06T03:32:28;14.10;;;6.33;;
20758;SDS011;10539;53.686;9.158;2023-05-06T03:34:55;12.60;;;6.07;;
20758;SDS011;10539;53.686;9.158;2023-05-06T03:37:20;18.30;;;7.20;;
20758;SDS011;10539;53.686;9.158;2023-05-06T03:39:46;19.13;;;7.30;;
20758;SDS011;10539;53.686;9.158;2023-05-06T03:42:12;12.70;;;6.63;;
20758;SDS011;10539;53.686;9.158;2023-05-06T03:44:37;13.17;;;6.20;;
20758;SDS011;10539;53.686;9.158;2023-05-06T03:47:03;15.00;;;7.47;;
20758;SDS011;10539;53.686;9.158;2023-05-06T03:49:29;16.80;;;7.67;;
20758;SDS011;10539;53.686;9.158;2023-05-06T03:51:54;15.73;;;8.13;;
20758;SDS011;10539;53.686;9.158;2023-05-06T03:54:21;15.17;;;7.70;;
20758;SDS011;10539;53.686;9.158;2023-05-06T03:56:46;14.10;;;8.20;;
20758;SDS011;10539;53.686;9.158;2023-05-06T03:59:12;20.83;;;8.10;;
20758;SDS011;10539;53.686;9.158;2023-05-06T04:01:38;19.73;;;9.23;;
20758;SDS011;10539;53.686;9.158;2023-05-06T04:04:03;16.50;;;8.33;;
20758;SDS011;10539;53.686;9.158;2023-05-06T04:06:29;17.10;;;8.13;;
20758;SDS011;10539;53.686;9.158;2023-05-06T04:08:55;16.50;;;7.53;;
20758;SDS011;10539;53.686;9.158;2023-05-06T04:11:20;19.57;;;8.97;;
20758;SDS011;10539;53.686;9.158;2023-05-06T04:13:46;18.83;;;8.93;;
20758;SDS011;10539;53.686;9.158;2023-05-06T04:16:12;21.60;;;8.70;;
20758;SDS011;10539;53.686;9.158;2023-05-06T04:18:37;13.87;;;8.70;;
20758;SDS011;10539;53.686;9.158;2023-05-06T04:21:03;17.23;;;9.10;;
20758;SDS011;10539;53.686;9.158;2023-05-06T04:23:30;18.47;;;8.87;;
20758;SDS011;10539;53.686;9.158;2023-05-06T04:25:56;24.10;;;9.83;;
20758;SDS011;10539;53.686;9.158;2023-05-06T04:28:22;14.00;;;7.60;;
20758;SDS011;10539;53.686;9.158;2023-05-06T04:30:48;23.00;;;8.27;;
20758;SDS011;10539;53.686;9.158;2023-05-06T04:33:13;15.00;;;6.90;;
20758;SDS011;10539;53.686;9.158;2023-05-06T04:35:39;17.20;;;7.53;;
20758;SDS011;10539;53.686;9.158;2023-05-06T04:38:05;18.70;;;7.60;;
20758;SDS011;10539;53.686;9.158;2023-05-06T04:40:31;14.63;;;7.10;;
20758;SDS011;10539;53.686;9.158;2023-05-06T04:42:59;16.37;;;7.43;;
20758;SDS011;10539;53.686;9.158;2023-05-06T04:45:25;14.63;;;6.73;;
20758;SDS011;10539;53.686;9.158;2023-05-06T04:47:50;19.13;;;7.33;;
20758;SDS011;10539;53.686;9.158;2023-05-06T04:50:16;16.47;;;7.13;;
20758;SDS011;10539;53.686;9.158;2023-05-06T04:52:42;20.50;;;7.30;;
20758;SDS011;10539;53.686;9.158;2023-05-06T04:55:07;15.63;;;7.20;;
20758;SDS011;10539;53.686;9.158;2023-05-06T04:57:35;14.00;;;7.47;;
20758;SDS011;10539;53.686;9.158;2023-05-06T05:00:00;18.63;;;7.57;;
20758;SDS011;10539;53.686;9.158;2023-05-06T05:02:26;16.30;;;8.00;;
20758;SDS011;10539;53.686;9.158;2023-05-06T05:04:52;19.43;;;8.03;;
20758;SDS011;10539;53.686;9.158;2023-05-06T05:07:17;19.23;;;8.30;;
20758;SDS011;10539;53.686;9.158;2023-05-06T05:09:43;16.77;;;7.70;;
20758;SDS011;10539;53.686;9.158;2023-05-06T05:12:09;16.53;;;7.47;;
20758;SDS011;10539;53.686;9.158;2023-05-06T05:14:35;16.27;;;7.30;;
20758;SDS011;10539;53.686;9.158;2023-05-06T05:17:01;14.33;;;7.50;;
20758;SDS011;10539;53.686;9.158;2023-05-06T05:19:27;15.77;;;7.73;;
20758;SDS011;10539;53.686;9.158;2023-05-06T05:21:52;17.67;;;8.73;;
20758;SDS011;10539;53.686;9.158;2023-05-06T05:24:19;17.93;;;7.73;;
20758;SDS011;10539;53.686;9.158;2023-05-06T05:26:44;16.13;;;7.13;;
20758;SDS011;10539;53.686;9.158;2023-05-06T05:29:10;13.33;;;6.73;;
20758;SDS011;10539;53.686;9.158;2023-05-06T05:31:36;13.63;;;6.73;;
20758;SDS011;10539;53.686;9.158;2023-05-06T05:34:01;17.17;;;7.10;;
20758;SDS011;10539;53.686;9.158;2023-05-06T05:36:27;13.10;;;5.77;;
20758;SDS011;10539;53.686;9.158;2023-05-06T05:38:53;13.97;;;7.17;;
20758;SDS011;10539;53.686;9.158;2023-05-06T05:41:18;13.53;;;6.63;;
20758;SDS011;10539;53.686;9.158;2023-05-06T05:43:44;13.60;;;6.70;;
20758;SDS011;10539;53.686;9.158;2023-05-06T05:46:09;12.27;;;6.43;;
20758;SDS011;10539;53.686;9.158;2023-05-06T05:48:35;13.00;;;7.13;;
20758;SDS011;10539;53.686;9.158;2023-05-06T05:51:04;17.87;;;7.27;;
20758;SDS011;10539;53.686;9.158;2023-05-06T05:53:29;19.67;;;7.83;;
20758;SDS011;10539;53.686;9.158;2023-05-06T05:55:55;17.73;;;7.03;;
20758;SDS011;10539;53.686;9.158;2023-05-06T05:58:21;12.40;;;6.67;;
20758;SDS011;10539;53.686;9.158;2023-05-06T06:00:47;14.47;;;7.50;;
20758;SDS011;10539;53.686;9.158;2023-05-06T06:03:13;13.37;;;7.03;;
20758;SDS011;10539;53.686;9.158;2023-05-06T06:05:38;16.00;;;6.50;;
20758;SDS011;10539;53.686;9.158;2023-05-06T06:08:04;17.50;;;8.50;;
20758;SDS011;10539;53.686;9.158;2023-05-06T06:10:30;16.30;;;8.87;;
20758;SDS011;10539;53.686;9.158;2023-05-06T06:12:56;13.00;;;6.50;;
20758;SDS011;10539;53.686;9.158;2023-05-06T06:15:21;11.67;;;5.77;;
20758;SDS011;10539;53.686;9.158;2023-05-06T06:17:47;14.37;;;7.37;;
20758;SDS011;10539;53.686;9.158;2023-05-06T06:20:12;20.40;;;8.67;;
20758;SDS011;10539;53.686;9.158;2023-05-06T06:22:38;16.73;;;8.13;;
20758;SDS011;10539;53.686;9.158;2023-05-06T06:25:05;11.07;;;6.13;;
20758;SDS011;10539;53.686;9.158;2023-05-06T06:27:33;17.60;;;8.00;;
20758;SDS011;10539;53.686;9.158;2023-05-06T06:30:01;15.67;;;8.13;;
20758;SDS011;10539;53.686;9.158;2023-05-06T06:32:27;17.80;;;8.50;;
20758;SDS011;10539;53.686;9.158;2023-05-06T06:34:52;15.00;;;7.83;;
20758;SDS011;10539;53.686;9.158;2023-05-06T06:37:18;14.10;;;7.97;;
20758;SDS011;10539;53.686;9.158;2023-05-06T06:39:43;16.60;;;8.67;;
20758;SDS011;10539;53.686;9.158;2023-05-06T06:42:09;15.30;;;7.93;;
20758;SDS011;10539;53.686;9.158;2023-05-06T06:44:35;16.13;;;8.17;;
20758;SDS011;10539;53.686;9.158;2023-05-06T06:47:01;18.70;;;7.90;;
20758;SDS011;10539;53.686;9.158;2023-05-06T06:49:27;13.87;;;8.17;;
20758;SDS011;10539;53.686;9.158;2023-05-06T06:51:52;15.67;;;8.33;;
20758;SDS011;10539;53.686;9.158;2023-05-06T06:54:20;12.07;;;7.40;;
20758;SDS011;10539;53.686;9.158;2023-05-06T06:56:46;15.30;;;8.80;;
20758;SDS011;10539;53.686;9.158;2023-05-06T06:59:12;14.83;;;8.30;;
20758;SDS011;10539;53.686;9.158;2023-05-06T07:01:39;23.13;;;9.70;;
20758;SDS011;10539;53.686;9.158;2023-05-06T07:04:05;17.70;;;7.90;;
20758;SDS011;10539;53.686;9.158;2023-05-06T07:06:31;13.13;;;7.17;;
20758;SDS011;10539;53.686;9.158;2023-05-06T07:08:57;17.50;;;8.17;;
20758;SDS011;10539;53.686;9.158;2023-05-06T07:11:22;16.80;;;9.33;;
20758;SDS011;10539;53.686;9.158;2023-05-06T07:13:48;17.20;;;9.23;;
20758;SDS011;10539;53.686;9.158;2023-05-06T07:16:14;14.37;;;8.67;;
20758;SDS011;10539;53.686;9.158;2023-05-06T07:18:39;25.77;;;10.33;;
20758;SDS011;10539;53.686;9.158;2023-05-06T07:21:05;17.30;;;9.20;;
20758;SDS011;10539;53.686;9.158;2023-05-06T07:23:31;20.00;;;9.60;;
20758;SDS011;10539;53.686;9.158;2023-05-06T07:25:57;19.37;;;9.37;;
20758;SDS011;10539;53.686;9.158;2023-05-06T07:28:23;20.70;;;9.07;;
20758;SDS011;10539;53.686;9.158;2023-05-06T07:30:50;16.73;;;9.20;;
20758;SDS011;10539;53.686;9.158;2023-05-06T07:33:16;20.30;;;9.37;;
20758;SDS011;10539;53.686;9.158;2023-05-06T07:35:42;17.43;;;9.37;;
20758;SDS011;10539;53.686;9.158;2023-05-06T07:38:08;23.33;;;8.87;;
20758;SDS011;10539;53.686;9.158;2023-05-06T07:40:33;20.03;;;8.70;;
20758;SDS011;10539;53.686;9.158;2023-05-06T07:42:59;21.20;;;9.27;;
20758;SDS011;10539;53.686;9.158;2023-05-06T07:45:26;22.17;;;10.10;;
20758;SDS011;10539;53.686;9.158;2023-05-06T07:47:51;21.87;;;10.57;;
20758;SDS011;10539;53.686;9.158;2023-05-06T07:50:17;20.87;;;9.90;;
20758;SDS011;10539;53.686;9.158;2023-05-06T07:52:43;21.27;;;10.70;;
20758;SDS011;10539;53.686;9.158;2023-05-06T07:55:08;24.60;;;9.57;;
20758;SDS011;10539;53.686;9.158;2023-05-06T07:57:34;20.97;;;10.53;;
20758;SDS011;10539;53.686;9.158;2023-05-06T08:00:00;19.83;;;9.87;;
20758;SDS011;10539;53.686;9.158;2023-05-06T08:02:26;19.00;;;9.90;;
20758;SDS011;10539;53.686;9.158;2023-05-06T08:04:52;23.13;;;11.30;;
20758;SDS011;10539;53.686;9.158;2023-05-06T08:07:17;22.90;;;9.80;;
20758;SDS011;10539;53.686;9.158;2023-05-06T08:09:43;26.17;;;10.63;;
20758;SDS011;10539;53.686;9.158;2023-05-06T08:12:09;20.03;;;10.13;;
20758;SDS011;10539;53.686;9.158;2023-05-06T08:14:35;19.10;;;10.07;;
20758;SDS011;10539;53.686;9.158;2023-05-06T08:17:00;24.23;;;11.70;;
20758;SDS011;10539;53.686;9.158;2023-05-06T08:19:26;21.50;;;10.60;;
20758;SDS011;10539;53.686;9.158;2023-05-06T08:21:52;23.63;;;11.03;;
20758;SDS011;10539;53.686;9.158;2023-05-06T08:24:18;22.27;;;10.23;;
20758;SDS011;10539;53.686;9.158;2023-05-06T08:26:44;22.07;;;10.70;;
20758;SDS011;10539;53.686;9.158;2023-05-06T08:29:09;22.13;;;11.43;;
20758;SDS011;10539;53.686;9.158;2023-05-06T08:31:35;21.03;;;10.30;;
20758;SDS011;10539;53.686;9.158;2023-05-06T08:34:01;20.13;;;10.97;;
20758;SDS011;10539;53.686;9.158;2023-05-06T08:36:27;20.27;;;10.40;;
20758;SDS011;10539;53.686;9.158;2023-05-06T08:38:52;26.47;;;11.50;;
20758;SDS011;10539;53.686;9.158;2023-05-06T08:41:19;23.60;;;11.27;;
20758;SDS011;10539;53.686;9.158;2023-05-06T08:43:46;19.70;;;10.03;;
20758;SDS011;10539;53.686;9.158;2023-05-06T08:46:14;19.33;;;10.60;;
20758;SDS011;10539;53.686;9.158;2023-05-06T08:48:40;23.03;;;11.00;;
20758;SDS011;10539;53.686;9.158;2023-05-06T08:51:07;22.47;;;11.10;;
20758;SDS011;10539;53.686;9.158;2023-05-06T08:53:33;23.67;;;10.70;;
20758;SDS011;10539;53.686;9.158;2023-05-06T08:56:00;20.20;;;11.53;;
20758;SDS011;10539;53.686;9.158;2023-05-06T08:58:34;21.93;;;10.77;;
20758;SDS011;10539;53.686;9.158;2023-05-06T09:01:02;21.93;;;10.37;;
20758;SDS011;10539;53.686;9.158;2023-05-06T09:03:29;20.80;;;10.47;;
20758;SDS011;10539;53.686;9.158;2023-05-06T09:05:55;21.57;;;10.53;;
20758;SDS011;10539;53.686;9.158;2023-05-06T09:08:21;22.10;;;11.73;;
20758;SDS011;10539;53.686;9.158;2023-05-06T09:10:47;20.73;;;11.30;;
20758;SDS011;10539;53.686;9.158;2023-05-06T09:13:14;24.23;;;9.80;;
20758;SDS011;10539;53.686;9.158;2023-05-06T09:15:40;19.90;;;11.30;;
20758;SDS011;10539;53.686;9.158;2023-05-06T09:18:07;23.60;;;11.20;;
20758;SDS011;10539;53.686;9.158;2023-05-06T09:20:33;24.70;;;10.77;;
20758;SDS011;10539;53.686;9.158;2023-05-06T09:23:00;20.53;;;11.30;;
20758;SDS011;10539;53.686;9.158;2023-05-06T09:25:27;27.03;;;12.20;;
20758;SDS011;10539;53.686;9.158;2023-05-06T09:28:06;26.07;;;12.03;;
20758;SDS011;10539;53.686;9.158;2023-05-06T09:30:37;22.53;;;10.83;;
20758;SDS011;10539;53.686;9.158;2023-05-06T09:33:05;22.30;;;10.73;;
20758;SDS011;10539;53.686;9.158;2023-05-06T09:35:37;21.70;;;11.83;;
20758;SDS011;10539;53.686;9.158;2023-05-06T09:38:05;22.37;;;11.47;;
20758;SDS011;10539;53.686;9.158;2023-05-06T09:40:32;28.97;;;12.30;;
20758;SDS011;10539;53.686;9.158;2023-05-06T09:42:59;23.10;;;11.60;;
20758;SDS011;10539;53.686;9.158;2023-05-06T09:45:25;21.17;;;10.40;;
20758;SDS011;10539;53.686;9.158;2023-05-06T09:47:52;24.63;;;11.03;;
20758;SDS011;10539;53.686;9.158;2023-05-06T09:50:19;26.13;;;12.37;;
20758;SDS011;10539;53.686;9.158;2023-05-06T09:52:46;22.73;;;10.90;;
20758;SDS011;10539;53.686;9.158;2023-05-06T09:55:13;21.80;;;10.83;;
20758;SDS011;10539;53.686;9.158;2023-05-06T09:57:40;22.07;;;12.23;;
20758;SDS011;10539;53.686;9.158;2023-05-06T10:00:08;20.83;;;12.00;;
20758;SDS011;10539;53.686;9.158;2023-05-06T10:02:39;26.43;;;11.90;;
20758;SDS011;10539;53.686;9.158;2023-05-06T10:05:05;20.60;;;10.70;;
20758;SDS011;10539;53.686;9.158;2023-05-06T10:07:33;24.50;;;12.40;;
20758;SDS011;10539;53.686;9.158;2023-05-06T10:10:04;30.33;;;12.43;;
20758;SDS011;10539;53.686;9.158;2023-05-06T10:12:34;21.47;;;11.40;;
20758;SDS011;10539;53.686;9.158;2023-05-06T10:15:00;24.37;;;12.37;;
20758;SDS011;10539;53.686;9.158;2023-05-06T10:17:28;22.80;;;12.47;;
20758;SDS011;10539;53.686;9.158;2023-05-06T10:19:57;27.57;;;12.60;;
20758;SDS011;10539;53.686;9.158;2023-05-06T10:22:40;24.80;;;11.73;;
20758;SDS011;10539;53.686;9.158;2023-05-06T10:28:06;20.27;;;11.53;;
20758;SDS011;10539;53.686;9.158;2023-05-06T10:30:35;21.57;;;11.87;;
20758;SDS011;10539;53.686;9.158;2023-05-06T10:33:04;24.00;;;12.43;;
20758;SDS011;10539;53.686;9.158;2023-05-06T10:35:41;24.40;;;11.83;;
20758;SDS011;10539;53.686;9.158;2023-05-06T10:38:29;23.67;;;11.63;;
20758;SDS011;10539;53.686;9.158;2023-05-06T10:41:05;20.17;;;11.23;;
20758;SDS011;10539;53.686;9.158;2023-05-06T10:43:32;19.93;;;10.50;;
20758;SDS011;10539;53.686;9.158;2023-05-06T10:48:36;20.90;;;11.40;;
20758;SDS011;10539;53.686;9.158;2023-05-06T10:59:11;22.13;;;11.67;;
20758;SDS011;10539;53.686;9.158;2023-05-06T11:07:11;20.87;;;10.50;;
20758;SDS011;10539;53.686;9.158;2023-05-06T11:15:17;17.83;;;10.43;;
20758;SDS011;10539;53.686;9.158;2023-05-06T11:20:48;19.30;;;10.40;;
20758;SDS011;10539;53.686;9.158;2023-05-06T11:23:16;24.70;;;10.53;;
20758;SDS011;10539;53.686;9.158;2023-05-06T11:25:43;21.17;;;10.53;;
20758;SDS011;10539;53.686;9.158;2023-05-06T11:28:11;19.97;;;11.07;;
20758;SDS011;10539;53.686;9.158;2023-05-06T11:30:42;19.80;;;11.33;;
20758;SDS011;10539;53.686;9.158;2023-05-06T11:33:17;19.37;;;11.17;;
20758;SDS011;10539;53.686;9.158;2023-05-06T11:35:43;23.40;;;12.43;;
20758;SDS011;10539;53.686;9.158;2023-05-06T11:38:10;27.53;;;11.97;;
20758;SDS011;10539;53.686;9.158;2023-05-06T11:40:36;23.90;;;12.80;;
20758;SDS011;10539;53.686;9.158;2023-05-06T11:45:41;19.97;;;11.27;;
20758;SDS011;10539;53.686;9.158;2023-05-06T11:48:13;26.67;;;11.77;;
20758;SDS011;10539;53.686;9.158;2023-05-06T11:50:47;21.87;;;11.97;;
20758;SDS011;10539;53.686;9.158;2023-05-06T11:53:16;20.63;;;10.13;;
20758;SDS011;10539;53.686;9.158;2023-05-06T11:55:43;24.13;;;11.87;;
20758;SDS011;10539;53.686;9.158;2023-05-06T11:58:14;19.87;;;11.50;;
20758;SDS011;10539;53.686;9.158;2023-05-06T12:00:46;22.13;;;11.73;;
20758;SDS011;10539;53.686;9.158;2023-05-06T12:03:19;20.63;;;10.30;;
20758;SDS011;10539;53.686;9.158;2023-05-06T12:05:46;18.90;;;11.00;;
20758;SDS011;10539;53.686;9.158;2023-05-06T12:08:12;20.03;;;10.90;;
20758;SDS011;10539;53.686;9.158;2023-05-06T12:10:41;16.90;;;8.77;;
20758;SDS011;10539;53.686;9.158;2023-05-06T12:13:07;20.30;;;10.10;;
20758;SDS011;10539;53.686;9.158;2023-05-06T12:15:33;23.40;;;11.00;;
20758;SDS011;10539;53.686;9.158;2023-05-06T12:18:00;18.57;;;10.27;;
20758;SDS011;10539;53.686;9.158;2023-05-06T12:20:27;20.87;;;11.03;;
20758;SDS011;10539;53.686;9.158;2023-05-06T12:23:09;19.37;;;11.40;;
20758;SDS011;10539;53.686;9.158;2023-05-06T12:25:36;21.20;;;11.30;;
20758;SDS011;10539;53.686;9.158;2023-05-06T12:30:38;20.50;;;11.07;;
20758;SDS011;10539;53.686;9.158;2023-05-06T12:33:03;17.77;;;9.90;;
20758;SDS011;10539;53.686;9.158;2023-05-06T12:35:31;18.30;;;10.47;;
20758;SDS011;10539;53.686;9.158;2023-05-06T12:38:07;18.80;;;10.20;;
20758;SDS011;10539;53.686;9.158;2023-05-06T12:40:40;21.60;;;12.23;;
20758;SDS011;10539;53.686;9.158;2023-05-06T12:43:07;17.40;;;10.63;;
20758;SDS011;10539;53.686;9.158;2023-05-06T12:45:33;20.90;;;11.57;;
20758;SDS011;10539;53.686;9.158;2023-05-06T12:48:00;19.67;;;12.37;;
20758;SDS011;10539;53.686;9.158;2023-05-06T12:53:03;17.93;;;10.80;;
20758;SDS011;10539;53.686;9.158;2023-05-06T12:55:35;19.73;;;10.50;;
20758;SDS011;10539;53.686;9.158;2023-05-06T12:58:01;17.67;;;10.47;;
20758;SDS011;10539;53.686;9.158;2023-05-06T13:00:27;18.00;;;9.80;;
20758;SDS011;10539;53.686;9.158;2023-05-06T13:02:53;21.00;;;10.97;;
20758;SDS011;10539;53.686;9.158;2023-05-06T13:05:19;21.10;;;10.43;;
20758;SDS011;10539;53.686;9.158;2023-05-06T13:07:45;17.87;;;9.47;;
20758;SDS011;10539;53.686;9.158;2023-05-06T13:10:11;18.60;;;9.03;;
20758;SDS011;10539;53.686;9.158;2023-05-06T13:12:37;18.27;;;10.50;;
20758;SDS011;10539;53.686;9.158;2023-05-06T13:15:02;18.57;;;10.33;;
20758;SDS011;10539;53.686;9.158;2023-05-06T13:17:28;17.60;;;10.60;;
20758;SDS011;10539;53.686;9.158;2023-05-06T13:19:54;18.03;;;9.30;;
20758;SDS011;10539;53.686;9.158;2023-05-06T13:22:23;20.87;;;10.97;;
20758;SDS011;10539;53.686;9.158;2023-05-06T13:24:49;18.47;;;10.50;;
20758;SDS011;10539;53.686;9.158;2023-05-06T13:27:15;16.73;;;9.53;;
20758;SDS011;10539;53.686;9.158;2023-05-06T13:29:41;16.67;;;10.00;;
20758;SDS011;10539;53.686;9.158;2023-05-06T13:32:07;15.33;;;8.97;;
20758;SDS011;10539;53.686;9.158;2023-05-06T13:34:33;16.27;;;9.67;;
20758;SDS011;10539;53.686;9.158;2023-05-06T13:36:59;21.17;;;10.23;;
20758;SDS011;10539;53.686;9.158;2023-05-06T13:39:24;17.07;;;9.87;;
20758;SDS011;10539;53.686;9.158;2023-05-06T13:41:50;15.37;;;9.57;;
20758;SDS011;10539;53.686;9.158;2023-05-06T13:44:17;18.80;;;10.47;;
20758;SDS011;10539;53.686;9.158;2023-05-06T13:46:43;22.57;;;10.73;;
20758;SDS011;10539;53.686;9.158;2023-05-06T13:49:09;18.53;;;10.07;;
20758;SDS011;10539;53.686;9.158;2023-05-06T13:51:35;17.77;;;10.43;;
20758;SDS011;10539;53.686;9.158;2023-05-06T13:54:01;17.43;;;9.87;;
20758;SDS011;10539;53.686;9.158;2023-05-06T13:56:28;16.27;;;9.40;;
20758;SDS011;10539;53.686;9.158;2023-05-06T13:58:53;15.40;;;9.73;;
20758;SDS011;10539;53.686;9.158;2023-05-06T14:01:19;17.60;;;10.53;;
20758;SDS011;10539;53.686;9.158;2023-05-06T14:03:46;19.60;;;10.73;;
20758;SDS011;10539;53.686;9.158;2023-05-06T14:06:12;18.80;;;10.40;;
20758;SDS011;10539;53.686;9.158;2023-05-06T14:08:38;17.60;;;10.30;;
20758;SDS011;10539;53.686;9.158;2023-05-06T14:11:04;19.63;;;10.43;;
20758;SDS011;10539;53.686;9.158;2023-05-06T14:13:30;19.57;;;10.33;;
20758;SDS011;10539;53.686;9.158;2023-05-06T14:15:57;19.53;;;10.50;;
20758;SDS011;10539;53.686;9.158;2023-05-06T14:18:27;19.53;;;10.90;;
20758;SDS011;10539;53.686;9.158;2023-05-06T14:20:53;16.63;;;9.67;;
20758;SDS011;10539;53.686;9.158;2023-05-06T14:23:19;16.73;;;9.43;;
20758;SDS011;10539;53.686;9.158;2023-05-06T14:25:45;17.33;;;10.13;;
20758;SDS011;10539;53.686;9.158;2023-05-06T14:28:10;17.07;;;9.93;;
20758;SDS011;10539;53.686;9.158;2023-05-06T14:30:37;19.47;;;10.27;;
20758;SDS011;10539;53.686;9.158;2023-05-06T14:33:04;19.87;;;10.07;;
20758;SDS011;10539;53.686;9.158;2023-05-06T14:35:30;16.70;;;9.57;;
20758;SDS011;10539;53.686;9.158;2023-05-06T14:37:56;19.97;;;9.53;;
20758;SDS011;10539;53.686;9.158;2023-05-06T14:40:22;15.47;;;9.50;;
20758;SDS011;10539;53.686;9.158;2023-05-06T14:42:48;17.83;;;10.67;;
20758;SDS011;10539;53.686;9.158;2023-05-06T14:45:14;16.50;;;9.60;;
20758;SDS011;10539;53.686;9.158;2023-05-06T14:47:40;19.07;;;9.63;;
20758;SDS011;10539;53.686;9.158;2023-05-06T14:50:10;18.73;;;10.40;;
20758;SDS011;10539;53.686;9.158;2023-05-06T14:52:37;21.80;;;10.37;;
20758;SDS011;10539;53.686;9.158;2023-05-06T14:55:07;17.10;;;9.20;;
20758;SDS011;10539;53.686;9.158;2023-05-06T14:57:34;18.17;;;9.53;;
20758;SDS011;10539;53.686;9.158;2023-05-06T15:00:03;19.50;;;10.90;;
20758;SDS011;10539;53.686;9.158;2023-05-06T15:02:34;17.73;;;9.40;;
20758;SDS011;10539;53.686;9.158;2023-05-06T15:05:13;15.40;;;8.43;;
20758;SDS011;10539;53.686;9.158;2023-05-06T15:07:39;16.27;;;9.33;;
20758;SDS011;10539;53.686;9.158;2023-05-06T15:10:05;18.07;;;9.20;;